Time;durP1;ratioP1;P1;durP2;ratioP2;P2;SDS_P1;SDS_P2;PMS_P1;PMS_P2;Temp;Humidity;BMP_temperature;BMP_pressure;BME280_temperature;BME280_humidity;BME280_pressure;Samples;Min_cycle;Max_cycle;Signal;HPM_P1;HPM_P2
2023/05/10 00:00:31;;;;;;;;;;;;;;;14.54;100.00;-18419.13;5006859;28;19917;-79
2023/05/10 00:02:57;;;;;;;;;;;;;;;14.40;100.00;-18415.28;5026064;28;19917;-81
2023/05/10 00:05:22;;;;;;;;;;;;;;;14.32;100.00;-18413.25;5003384;28;19921;-82
2023/05/10 00:07:47;;;;;;;;;;;;;;;14.16;100.00;-18409.00;4998737;28;20400;-82
2023/05/10 00:10:12;;;;;;;;;;;;;;;14.14;100.00;-18408.44;5003166;28;20542;-82
2023/05/10 00:12:38;;;;;;;;;;;;;;;14.08;100.00;-18406.81;5008984;28;20562;-80
2023/05/10 00:15:03;;;;;;;;;;;;;;;14.00;100.00;-18404.63;5001300;28;19917;-82
2023/05/10 00:17:29;;;;;;;;;;;;;;;14.02;100.00;-18405.16;5000595;28;19927;-83
2023/05/10 00:19:54;;;;;;;;;;;;;;;14.02;100.00;-18405.03;4998610;28;20371;-81
2023/05/10 00:22:20;;;;;;;;;;;;;;;13.95;100.00;-18403.38;5002537;28;19918;-82
2023/05/10 00:24:45;;;;;;;;;;;;;;;13.94;100.00;-18402.97;5002856;28;20395;-81
2023/05/10 00:27:10;;;;;;;;;;;;;;;13.94;100.00;-18403.09;4997694;28;19917;-81
2023/05/10 00:29:35;;;;;;;;;;;;;;;13.89;100.00;-18401.75;5006824;28;19967;-82
2023/05/10 00:32:01;;;;;;;;;;;;;;;13.96;100.00;-18403.53;5015566;28;19920;-80
2023/05/10 00:34:27;;;;;;;;;;;;;;;13.88;100.00;-18401.47;5012630;28;19914;-82
2023/05/10 00:36:52;;;;;;;;;;;;;;;13.89;100.00;-18401.59;5014487;28;19914;-80
2023/05/10 00:39:17;;;;;;;;;;;;;;;13.91;100.00;-18402.28;5010865;28;19924;-81
2023/05/10 00:41:42;;;;;;;;;;;;;;;13.74;100.00;-18397.75;5009402;28;19921;-82
2023/05/10 00:44:07;;;;;;;;;;;;;;;13.73;100.00;-18397.34;5000021;28;19928;-82
2023/05/10 00:46:33;;;;;;;;;;;;;;;13.76;100.00;-18398.31;5007770;28;19963;-79
2023/05/10 00:48:58;;;;;;;;;;;;;;;13.82;100.00;-18399.69;5001569;28;19924;-82
2023/05/10 00:51:24;;;;;;;;;;;;;;;13.84;100.00;-18400.22;5001898;28;19953;-81
2023/05/10 00:53:49;;;;;;;;;;;;;;;13.85;100.00;-18400.50;5001302;28;19933;-79
2023/05/10 00:56:15;;;;;;;;;;;;;;;13.86;100.00;-18400.78;5002396;28;19921;-82
2023/05/10 00:58:40;;;;;;;;;;;;;;;13.84;100.00;-18400.22;5000728;28;19922;-82
2023/05/10 01:01:06;;;;;;;;;;;;;;;13.85;100.00;-18400.66;4996807;28;20405;-81
2023/05/10 01:03:32;;;;;;;;;;;;;;;13.83;100.00;-18399.97;5003581;28;20411;-81
2023/05/10 01:05:57;;;;;;;;;;;;;;;13.81;100.00;-18399.41;5001425;28;20444;-80
2023/05/10 01:08:23;;;;;;;;;;;;;;;13.81;100.00;-18399.41;4996318;28;19956;-81
2023/05/10 01:10:52;;;;;;;;;;;;;;;13.88;100.00;-18401.31;5005257;28;19926;-78
2023/05/10 01:13:23;;;;;;;;;;;;;;;13.89;100.00;-18401.59;4996408;28;19917;-82
2023/05/10 01:15:48;;;;;;;;;;;;;;;13.96;100.00;-18403.66;4998766;28;19925;-79
2023/05/10 01:18:13;;;;;;;;;;;;;;;13.94;100.00;-18402.97;5000538;28;19926;-82
2023/05/10 01:20:42;;;;;;;;;;;;;;;14.03;100.00;-18405.31;4999248;28;19925;-82
2023/05/10 01:23:15;;;;;;;;;;;;;;;14.02;100.00;-18405.16;4997617;28;19986;-82
2023/05/10 01:25:41;;;;;;;;;;;;;;;13.95;100.00;-18403.25;5001836;28;20671;-78
2023/05/10 01:28:33;;;;;;;;;;;;;;;13.91;100.00;-18402.16;4999009;28;19968;-80
2023/05/10 01:31:01;;;;;;;;;;;;;;;13.80;100.00;-18399.13;5011757;28;20396;-80
2023/05/10 01:33:30;;;;;;;;;;;;;;;13.79;100.00;-18399.00;5003244;28;19917;-79
2023/05/10 01:36:01;;;;;;;;;;;;;;;13.65;100.00;-18395.31;4996744;28;20630;-82
2023/05/10 01:38:26;;;;;;;;;;;;;;;13.67;100.00;-18395.84;4998083;28;19929;-79
2023/05/10 01:41:03;;;;;;;;;;;;;;;13.68;100.00;-18396.13;5000245;28;19917;-81
2023/05/10 01:43:32;;;;;;;;;;;;;;;13.73;100.00;-18397.50;4998125;28;20524;-80
2023/05/10 01:46:10;;;;;;;;;;;;;;;13.86;100.00;-18400.78;5005218;28;19923;-82
2023/05/10 01:48:35;;;;;;;;;;;;;;;13.71;100.00;-18396.94;4993229;28;20257;-81
2023/05/10 01:51:01;;;;;;;;;;;;;;;13.67;100.00;-18395.84;4996746;28;19917;-81
2023/05/10 01:53:27;;;;;;;;;;;;;;;13.67;100.00;-18395.84;4997518;28;19918;-81
2023/05/10 01:55:55;;;;;;;;;;;;;;;13.67;100.00;-18395.84;4996226;28;19928;-82
2023/05/10 01:58:22;;;;;;;;;;;;;;;13.65;100.00;-18395.31;4998008;28;19921;-82
2023/05/10 02:00:49;;;;;;;;;;;;;;;13.61;100.00;-18394.22;4997329;28;19924;-81
2023/05/10 02:03:16;;;;;;;;;;;;;;;13.63;100.00;-18394.63;5002332;28;19971;-82
2023/05/10 02:05:41;;;;;;;;;;;;;;;13.71;100.00;-18396.94;4999423;28;19925;-82
2023/05/10 02:08:07;;;;;;;;;;;;;;;13.68;100.00;-18396.00;4995925;28;19917;-81
2023/05/10 02:10:36;;;;;;;;;;;;;;;13.63;100.00;-18394.75;5014464;22;20020;-79
2023/05/10 02:13:02;;;;;;;;;;;;;;;13.66;100.00;-18395.44;4961019;28;19933;-79
2023/05/10 02:15:28;;;;;;;;;;;;;;;13.70;100.00;-18396.53;4949646;28;19914;-80
2023/05/10 02:17:58;;;;;;;;;;;;;;;13.76;100.00;-18398.19;4954623;28;20341;-79
2023/05/10 02:20:24;;;;;;;;;;;;;;;13.75;100.00;-18397.91;4953363;28;19922;-79
2023/05/10 02:22:50;;;;;;;;;;;;;;;13.72;100.00;-18397.22;4952517;28;19938;-79
2023/05/10 02:25:17;;;;;;;;;;;;;;;13.69;100.00;-18396.41;4952843;28;19918;-79
2023/05/10 02:27:43;;;;;;;;;;;;;;;13.64;100.00;-18395.03;4954830;28;20424;-80
2023/05/10 02:30:10;;;;;;;;;;;;;;;13.49;100.00;-18390.91;4950258;28;19931;-79
2023/05/10 02:32:35;;;;;;;;;;;;;;;13.49;100.00;-18391.06;4969325;28;20364;-80
2023/05/10 02:35:02;;;;;;;;;;;;;;;13.64;100.00;-18395.03;4956630;28;19957;-80
2023/05/10 02:37:28;;;;;;;;;;;;;;;13.63;100.00;-18394.75;4957193;28;19918;-79
2023/05/10 02:39:54;;;;;;;;;;;;;;;13.67;100.00;-18395.84;4950986;28;20510;-80
2023/05/10 02:42:23;;;;;;;;;;;;;;;13.74;100.00;-18397.75;4957749;28;20066;-79
2023/05/10 02:44:50;;;;;;;;;;;;;;;13.65;100.00;-18395.31;4953270;28;19950;-80
2023/05/10 02:47:15;;;;;;;;;;;;;;;13.59;100.00;-18393.66;4971361;28;19926;-79
2023/05/10 02:49:41;;;;;;;;;;;;;;;13.61;100.00;-18394.06;4951864;28;19918;-79
2023/05/10 02:52:08;;;;;;;;;;;;;;;13.73;100.00;-18397.50;4950255;28;19918;-80
2023/05/10 02:54:39;;;;;;;;;;;;;;;13.75;100.00;-18398.03;4958861;28;19918;-80
2023/05/10 02:57:06;;;;;;;;;;;;;;;13.75;100.00;-18398.03;4961343;28;20501;-80
2023/05/10 02:59:32;;;;;;;;;;;;;;;13.72;100.00;-18397.09;4957260;28;19922;-80
2023/05/10 03:01:58;;;;;;;;;;;;;;;13.72;100.00;-18397.22;4950874;28;19957;-80
2023/05/10 03:04:23;;;;;;;;;;;;;;;13.74;100.00;-18397.75;4947706;28;19954;-79
2023/05/10 03:06:48;;;;;;;;;;;;;;;13.76;100.00;-18398.31;4953727;28;20334;-79
2023/05/10 03:09:15;;;;;;;;;;;;;;;13.71;100.00;-18396.94;4957581;28;19950;-79
2023/05/10 03:11:55;;;;;;;;;;;;;;;13.76;100.00;-18398.19;4968139;28;19925;-79
2023/05/10 03:14:23;;;;;;;;;;;;;;;13.88;100.00;-18401.31;4954668;28;19918;-79
2023/05/10 03:17:04;;;;;;;;;;;;;;;13.74;100.00;-18397.63;4948046;28;19926;-80
2023/05/10 03:19:32;;;;;;;;;;;;;;;13.83;100.00;-18399.97;4954363;28;20045;-78
2023/05/10 03:22:03;;;;;;;;;;;;;;;13.95;100.00;-18403.25;4958606;28;19945;-80
2023/05/10 03:24:29;;;;;;;;;;;;;;;13.84;100.00;-18400.22;4951703;28;19972;-78
2023/05/10 03:26:58;;;;;;;;;;;;;;;13.83;100.00;-18400.09;4957404;28;19927;-80
2023/05/10 03:29:25;;;;;;;;;;;;;;;13.87;100.00;-18401.19;4948559;28;19929;-80
2023/05/10 03:31:51;;;;;;;;;;;;;;;14.00;100.00;-18404.75;4950705;28;19926;-80
2023/05/10 03:34:17;;;;;;;;;;;;;;;14.03;100.00;-18405.31;4968991;28;19917;-78
2023/05/10 03:36:42;;;;;;;;;;;;;;;14.06;100.00;-18406.25;4960579;28;19919;-79
2023/05/10 03:39:07;;;;;;;;;;;;;;;14.02;100.00;-18405.03;4953674;28;19937;-80
2023/05/10 03:41:32;;;;;;;;;;;;;;;14.05;100.00;-18406.00;4965647;28;19929;-79
2023/05/10 03:43:58;;;;;;;;;;;;;;;14.18;100.00;-18409.56;4958281;28;20997;-79
2023/05/10 03:46:23;;;;;;;;;;;;;;;14.02;100.00;-18405.16;4954937;28;20393;-79
2023/05/10 03:48:48;;;;;;;;;;;;;;;13.89;100.00;-18401.59;4956119;28;19926;-80
2023/05/10 03:51:13;;;;;;;;;;;;;;;13.93;100.00;-18402.69;4956491;28;20425;-79
2023/05/10 03:53:38;;;;;;;;;;;;;;;13.92;100.00;-18402.41;4960894;28;20381;-80
2023/05/10 03:56:04;;;;;;;;;;;;;;;13.94;100.00;-18403.09;4953838;28;19925;-80
2023/05/10 03:58:29;;;;;;;;;;;;;;;14.04;100.00;-18405.72;4958791;28;20377;-79
2023/05/10 04:00:55;;;;;;;;;;;;;;;13.75;100.00;-18397.91;4947841;28;19934;-80
2023/05/10 04:03:20;;;;;;;;;;;;;;;13.73;100.00;-18397.50;4945237;28;19918;-78
2023/05/10 04:05:45;;;;;;;;;;;;;;;13.82;100.00;-18399.69;4956337;28;19922;-80
2023/05/10 04:08:10;;;;;;;;;;;;;;;13.74;100.00;-18397.63;4958491;28;20468;-79
2023/05/10 04:10:36;;;;;;;;;;;;;;;13.85;100.00;-18400.50;4959909;28;20308;-80
2023/05/10 04:13:01;;;;;;;;;;;;;;;13.82;100.00;-18399.69;4970095;28;19918;-80
2023/05/10 04:15:26;;;;;;;;;;;;;;;13.99;100.00;-18404.34;4950582;28;19922;-81
2023/05/10 04:17:51;;;;;;;;;;;;;;;14.02;100.00;-18405.03;4951103;28;19957;-80
2023/05/10 04:20:17;;;;;;;;;;;;;;;14.11;100.00;-18407.63;4965346;28;19969;-78
2023/05/10 04:22:42;;;;;;;;;;;;;;;14.04;100.00;-18405.56;4955408;28;20377;-80
2023/05/10 04:25:07;;;;;;;;;;;;;;;14.05;100.00;-18406.00;4959607;28;20009;-80
2023/05/10 04:27:33;;;;;;;;;;;;;;;13.94;100.00;-18402.97;4954878;28;19922;-79
2023/05/10 04:29:58;;;;;;;;;;;;;;;14.00;100.00;-18404.75;4961072;28;19933;-80
2023/05/10 04:32:23;;;;;;;;;;;;;;;13.92;100.00;-18402.56;4963518;28;19964;-79
2023/05/10 04:34:49;;;;;;;;;;;;;;;14.05;100.00;-18406.00;4962940;28;19930;-80
2023/05/10 04:37:14;;;;;;;;;;;;;;;14.06;100.00;-18406.25;4977254;28;19962;-79
2023/05/10 04:39:39;;;;;;;;;;;;;;;14.02;100.00;-18405.03;4955651;28;20006;-80
2023/05/10 04:42:05;;;;;;;;;;;;;;;14.06;100.00;-18406.25;4958752;28;19919;-81
2023/05/10 04:44:31;;;;;;;;;;;;;;;14.01;100.00;-18404.88;4957135;28;19970;-81
2023/05/10 04:46:56;;;;;;;;;;;;;;;13.94;100.00;-18402.97;4956935;28;20427;-81
2023/05/10 04:49:21;;;;;;;;;;;;;;;14.15;100.00;-18408.59;4969576;28;19964;-79
2023/05/10 04:51:46;;;;;;;;;;;;;;;14.22;100.00;-18410.63;4967000;28;20018;-80
2023/05/10 04:54:12;;;;;;;;;;;;;;;14.09;100.00;-18406.94;4975234;28;19918;-80
2023/05/10 04:56:37;;;;;;;;;;;;;;;14.20;100.00;-18409.97;4955503;28;19925;-82
2023/05/10 04:59:02;;;;;;;;;;;;;;;14.28;100.00;-18412.16;4960571;28;19922;-77
2023/05/10 05:01:27;;;;;;;;;;;;;;;14.19;100.00;-18409.81;4959753;28;20405;-81
2023/05/10 05:03:53;;;;;;;;;;;;;;;13.98;100.00;-18404.06;4956642;28;19919;-79
2023/05/10 05:06:18;;;;;;;;;;;;;;;14.02;100.00;-18405.16;4964024;28;19921;-80
2023/05/10 05:08:43;;;;;;;;;;;;;;;14.14;100.00;-18408.44;4949251;28;19957;-80
2023/05/10 05:11:09;;;;;;;;;;;;;;;14.16;100.00;-18409.00;4951770;28;19949;-79
2023/05/10 05:13:34;;;;;;;;;;;;;;;13.88;100.00;-18401.47;4952903;28;20354;-79
2023/05/10 05:16:00;;;;;;;;;;;;;;;13.99;100.00;-18404.34;4945381;28;19941;-79
2023/05/10 05:18:25;;;;;;;;;;;;;;;14.01;100.00;-18404.88;4951871;28;19934;-79
2023/05/10 05:20:51;;;;;;;;;;;;;;;14.08;100.00;-18406.81;4948914;28;19925;-79
2023/05/10 05:23:16;;;;;;;;;;;;;;;14.07;100.00;-18406.53;4956192;28;19969;-79
2023/05/10 05:25:41;;;;;;;;;;;;;;;14.14;100.00;-18408.31;4949477;28;19918;-79
2023/05/10 05:28:07;;;;;;;;;;;;;;;14.20;100.00;-18409.97;4954770;28;19919;-80
2023/05/10 05:30:32;;;;;;;;;;;;;;;14.30;100.00;-18412.56;4956653;28;19925;-79
2023/05/10 05:32:57;;;;;;;;;;;;;;;14.36;100.00;-18414.19;4953939;28;19922;-80
2023/05/10 05:35:23;;;;;;;;;;;;;;;14.36;100.00;-18414.34;4952139;28;19957;-79
2023/05/10 05:37:48;;;;;;;;;;;;;;;14.39;100.00;-18415.03;4943514;28;19934;-79
2023/05/10 05:40:14;;;;;;;;;;;;;;;14.30;100.00;-18412.56;4948880;28;19930;-79
2023/05/10 05:42:39;;;;;;;;;;;;;;;14.25;100.00;-18411.31;4951699;28;19926;-79
2023/05/10 05:45:05;;;;;;;;;;;;;;;14.27;100.00;-18411.72;4968986;28;19925;-80
2023/05/10 05:47:30;;;;;;;;;;;;;;;14.28;100.00;-18412.16;4953250;28;19925;-80
2023/05/10 05:49:55;;;;;;;;;;;;;;;14.40;100.00;-18415.28;4957447;28;19926;-79
2023/05/10 05:52:21;;;;;;;;;;;;;;;14.06;100.00;-18406.13;4958975;28;19918;-79
2023/05/10 05:54:46;;;;;;;;;;;;;;;14.21;100.00;-18410.22;4953556;28;19930;-79
2023/05/10 05:57:11;;;;;;;;;;;;;;;14.15;100.00;-18408.72;4950591;28;19918;-79
2023/05/10 05:59:41;;;;;;;;;;;;;;;14.25;100.00;-18411.19;4948589;28;19922;-79
2023/05/10 06:02:06;;;;;;;;;;;;;;;14.03;100.00;-18405.44;4971479;28;19922;-80
2023/05/10 06:04:32;;;;;;;;;;;;;;;14.12;100.00;-18407.91;4949964;28;19922;-80
2023/05/10 06:06:57;;;;;;;;;;;;;;;14.10;100.00;-18407.34;4955360;28;19957;-80
2023/05/10 06:09:24;;;;;;;;;;;;;;;13.91;100.00;-18402.28;4960921;28;19918;-80
2023/05/10 06:11:49;;;;;;;;;;;;;;;13.96;100.00;-18403.66;4957961;28;19923;-79
2023/05/10 06:14:14;;;;;;;;;;;;;;;14.01;100.00;-18404.88;4968890;28;19922;-80
2023/05/10 06:16:40;;;;;;;;;;;;;;;14.07;100.00;-18406.53;4961475;28;19918;-79
2023/05/10 06:19:05;;;;;;;;;;;;;;;14.04;100.00;-18405.56;4963109;28;19957;-80
2023/05/10 06:21:30;;;;;;;;;;;;;;;14.07;100.00;-18406.41;4953453;28;19918;-80
2023/05/10 06:23:56;;;;;;;;;;;;;;;14.23;100.00;-18410.78;4977155;28;19926;-80
2023/05/10 06:26:21;;;;;;;;;;;;;;;14.37;100.00;-18414.63;4955382;28;19925;-80
2023/05/10 06:28:46;;;;;;;;;;;;;;;14.35;100.00;-18413.94;4956723;28;19922;-80
2023/05/10 06:31:12;;;;;;;;;;;;;;;14.32;100.00;-18413.09;4946228;28;20001;-80
2023/05/10 06:33:37;;;;;;;;;;;;;;;14.34;100.00;-18413.66;4956248;28;20018;-80
2023/05/10 06:36:02;;;;;;;;;;;;;;;14.33;100.00;-18413.53;4955580;28;19941;-80
2023/05/10 06:38:28;;;;;;;;;;;;;;;14.33;100.00;-18413.38;4952540;28;19929;-80
2023/05/10 06:40:53;;;;;;;;;;;;;;;14.44;100.00;-18416.38;4967394;28;20486;-79
2023/05/10 06:43:18;;;;;;;;;;;;;;;14.35;100.00;-18413.94;4963049;28;20397;-80
2023/05/10 06:45:43;;;;;;;;;;;;;;;14.40;100.00;-18415.28;4964215;28;19918;-80
2023/05/10 06:48:09;;;;;;;;;;;;;;;14.48;100.00;-18417.50;4954134;28;19922;-80
2023/05/10 06:50:34;;;;;;;;;;;;;;;14.51;100.00;-18418.31;4948519;28;19925;-80
2023/05/10 06:53:00;;;;;;;;;;;;;;;14.42;100.00;-18415.84;4968712;28;19957;-80
2023/05/10 06:55:25;;;;;;;;;;;;;;;14.42;100.00;-18415.84;4954517;28;19918;-79
2023/05/10 06:57:50;;;;;;;;;;;;;;;14.43;100.00;-18416.13;4952462;28;19973;-80
2023/05/10 07:00:16;;;;;;;;;;;;;;;14.38;100.00;-18414.75;4960299;28;19929;-80
2023/05/10 07:02:41;;;;;;;;;;;;;;;14.38;100.00;-18414.88;4954835;28;19919;-80
2023/05/10 07:05:07;;;;;;;;;;;;;;;14.47;100.00;-18417.22;4952954;28;19918;-80
2023/05/10 07:07:32;;;;;;;;;;;;;;;14.54;100.00;-18419.13;4947402;28;19918;-80
2023/05/10 07:09:57;;;;;;;;;;;;;;;14.55;100.00;-18419.41;4957311;28;19925;-79
2023/05/10 07:12:23;;;;;;;;;;;;;;;14.63;100.00;-18421.59;4967051;28;19922;-80
2023/05/10 07:14:48;;;;;;;;;;;;;;;14.60;100.00;-18420.78;4961152;28;19973;-80
2023/05/10 07:17:13;;;;;;;;;;;;;;;14.64;100.00;-18421.88;4963513;28;19933;-80
2023/05/10 07:19:39;;;;;;;;;;;;;;;14.67;100.00;-18422.56;4948593;28;19954;-80
2023/05/10 07:22:04;;;;;;;;;;;;;;;14.65;100.00;-18422.16;4950145;28;19998;-79
2023/05/10 07:24:30;;;;;;;;;;;;;;;14.77;100.00;-18425.16;4944400;28;20406;-80
2023/05/10 07:26:56;;;;;;;;;;;;;;;14.80;100.00;-18425.97;4955003;28;20560;-80
2023/05/10 07:29:21;;;;;;;;;;;;;;;14.78;100.00;-18425.56;4958398;28;19925;-80
2023/05/10 07:31:46;;;;;;;;;;;;;;;14.79;100.00;-18425.84;4962077;28;19923;-80
2023/05/10 07:34:12;;;;;;;;;;;;;;;14.75;100.00;-18424.75;4961098;28;20338;-80
2023/05/10 07:36:37;;;;;;;;;;;;;;;14.79;100.00;-18425.84;4949833;28;19929;-79
2023/05/10 07:39:02;;;;;;;;;;;;;;;14.72;100.00;-18423.94;4972929;28;19927;-79
2023/05/10 07:41:28;;;;;;;;;;;;;;;14.76;100.00;-18424.88;4951382;28;19922;-79
2023/05/10 07:43:53;;;;;;;;;;;;;;;14.71;100.00;-18423.66;4952287;28;19940;-79
2023/05/10 07:46:19;;;;;;;;;;;;;;;14.74;100.00;-18424.47;4952085;28;19945;-79
2023/05/10 07:48:44;;;;;;;;;;;;;;;14.79;100.00;-18425.72;4945570;28;19925;-79
2023/05/10 07:51:10;;;;;;;;;;;;;;;14.65;100.00;-18422.16;4958010;28;20620;-79
2023/05/10 07:53:35;;;;;;;;;;;;;;;14.64;100.00;-18421.88;4951777;28;19925;-79
2023/05/10 07:56:19;;;;;;;;;;;;;;;14.73;100.00;-18424.19;4950368;28;20060;-79
2023/05/10 07:58:44;;;;;;;;;;;;;;;14.75;100.00;-18424.59;4940339;28;19966;-79
2023/05/10 08:01:09;;;;;;;;;;;;;;;14.78;100.00;-18425.56;4970274;28;19927;-79
2023/05/10 08:03:35;;;;;;;;;;;;;;;14.90;100.00;-18428.72;4946019;28;19919;-79
2023/05/10 08:06:00;;;;;;;;;;;;;;;14.92;100.00;-18429.13;4958582;28;19925;-79
2023/05/10 08:08:25;;;;;;;;;;;;;;;14.95;100.00;-18429.94;4954521;28;19921;-79
2023/05/10 08:13:17;;;;;;;;;;;;;;;14.87;100.00;-18428.03;5035795;23;20552;-87
2023/05/10 08:15:43;;;;;;;;;;;;;;;14.90;100.00;-18428.72;4999997;28;19917;-88
2023/05/10 08:18:08;;;;;;;;;;;;;;;14.94;100.00;-18429.81;5003956;28;19967;-87
2023/05/10 08:20:33;;;;;;;;;;;;;;;15.04;100.00;-18432.53;5003245;28;19922;-88
2023/05/10 08:22:58;;;;;;;;;;;;;;;14.99;100.00;-18431.19;5005996;28;19917;-88
2023/05/10 08:25:24;;;;;;;;;;;;;;;15.00;100.00;-18431.44;5028915;23;19929;-82
2023/05/10 08:27:49;;;;;;;;;;;;;;;15.14;100.00;-18435.00;5009847;28;19926;-82
2023/05/10 08:30:14;;;;;;;;;;;;;;;15.12;100.00;-18434.59;5009211;28;20004;-82
2023/05/10 08:32:39;;;;;;;;;;;;;;;15.12;100.00;-18434.72;5009058;28;19960;-81
2023/05/10 08:35:05;;;;;;;;;;;;;;;15.17;100.00;-18435.84;5010226;28;20395;-82
2023/05/10 08:37:32;;;;;;;;;;;;;;;15.38;100.00;-18441.56;5010365;28;20343;-82
2023/05/10 08:39:57;;;;;;;;;;;;;;;15.51;100.00;-18445.00;5020595;28;19944;-81
2023/05/10 08:42:25;;;;;;;;;;;;;;;15.41;100.00;-18442.25;5008392;28;20012;-83
2023/05/10 08:44:51;;;;;;;;;;;;;;;15.47;100.00;-18444.03;5008176;28;19984;-82
2023/05/10 08:47:17;;;;;;;;;;;;;;;15.62;100.00;-18447.88;5009188;28;19925;-82
2023/05/10 08:49:44;;;;;;;;;;;;;;;15.54;100.00;-18445.81;5023230;28;19926;-82
2023/05/10 08:52:11;;;;;;;;;;;;;;;15.47;100.00;-18444.03;5010029;28;19928;-82
2023/05/10 08:54:37;;;;;;;;;;;;;;;15.49;100.00;-18444.59;5005910;28;19921;-82
2023/05/10 08:57:03;;;;;;;;;;;;;;;15.55;100.00;-18446.22;5006696;28;19929;-83
2023/05/10 08:59:28;;;;;;;;;;;;;;;15.50;100.00;-18444.72;5005362;28;19929;-82
2023/05/10 09:01:55;;;;;;;;;;;;;;;15.72;100.00;-18450.59;5007506;28;19921;-82
2023/05/10 09:04:21;;;;;;;;;;;;;;;15.76;100.00;-18451.69;5008723;28;20011;-82
2023/05/10 09:06:46;;;;;;;;;;;;;;;15.88;100.00;-18454.84;5008403;28;19988;-81
2023/05/10 09:09:11;;;;;;;;;;;;;;;15.76;100.00;-18451.69;5007388;28;20016;-82
2023/05/10 09:11:37;;;;;;;;;;;;;;;15.78;100.00;-18452.38;5006231;28;19928;-82
2023/05/10 09:14:02;;;;;;;;;;;;;;;15.61;100.00;-18447.72;5005807;28;19957;-82
2023/05/10 09:16:27;;;;;;;;;;;;;;;15.31;100.00;-18439.66;5006016;28;19917;-83
2023/05/10 09:18:52;;;;;;;;;;;;;;;15.17;100.00;-18435.97;5006187;28;19965;-81
2023/05/10 09:21:19;;;;;;;;;;;;;;;15.13;100.00;-18434.88;5006513;28;19972;-82
2023/05/10 09:23:46;;;;;;;;;;;;;;;15.19;100.00;-18436.38;5008206;28;19929;-82
2023/05/10 09:26:12;;;;;;;;;;;;;;;15.26;100.00;-18438.28;5007218;28;19921;-82
2023/05/10 09:28:56;;;;;;;;;;;;;;;15.28;100.00;-18438.84;5005895;28;19925;-82
2023/05/10 09:31:22;;;;;;;;;;;;;;;15.18;100.00;-18436.25;5005463;28;19928;-82
2023/05/10 09:33:48;;;;;;;;;;;;;;;15.25;100.00;-18438.03;5003517;28;20343;-82
2023/05/10 09:36:13;;;;;;;;;;;;;;;15.40;100.00;-18442.00;5006497;28;19917;-82
2023/05/10 09:38:46;;;;;;;;;;;;;;;15.56;100.00;-18446.50;5004685;28;20388;-82
2023/05/10 09:41:18;;;;;;;;;;;;;;;15.67;100.00;-18449.22;5007594;28;19925;-82
2023/05/10 09:43:44;;;;;;;;;;;;;;;15.60;100.00;-18447.47;5005867;28;19917;-82
2023/05/10 09:46:11;;;;;;;;;;;;;;;15.32;100.00;-18439.94;5006371;28;19932;-82
2023/05/10 09:48:41;;;;;;;;;;;;;;;15.39;100.00;-18441.72;5005676;28;19921;-82
2023/05/10 09:51:06;;;;;;;;;;;;;;;15.52;100.00;-18445.28;5002777;28;20399;-82
2023/05/10 09:53:31;;;;;;;;;;;;;;;15.38;100.00;-18441.56;5006124;28;19921;-82
2023/05/10 09:55:57;;;;;;;;;;;;;;;15.41;100.00;-18442.41;5006560;28;19926;-82
2023/05/10 09:58:22;;;;;;;;;;;;;;;15.37;100.00;-18441.31;5005480;28;19928;-82
2023/05/10 10:00:51;;;;;;;;;;;;;;;15.63;100.00;-18448.13;5005403;28;19963;-82
2023/05/10 10:03:17;;;;;;;;;;;;;;;15.67;100.00;-18449.38;5005831;28;19925;-82
2023/05/10 10:05:43;;;;;;;;;;;;;;;15.57;100.00;-18446.78;5003948;28;19925;-82
2023/05/10 10:08:09;;;;;;;;;;;;;;;15.44;100.00;-18443.06;5004275;28;20024;-82
2023/05/10 10:10:34;;;;;;;;;;;;;;;15.66;100.00;-18448.97;5004735;28;20016;-82
2023/05/10 10:12:59;;;;;;;;;;;;;;;15.86;100.00;-18454.44;5006620;28;19924;-82
2023/05/10 10:15:25;;;;;;;;;;;;;;;15.66;100.00;-18449.09;5006478;28;19929;-81
2023/05/10 10:17:51;;;;;;;;;;;;;;;15.67;100.00;-18449.22;5006247;28;20351;-82
2023/05/10 10:20:16;;;;;;;;;;;;;;;15.76;100.00;-18451.84;5004517;28;19921;-82
2023/05/10 10:22:43;;;;;;;;;;;;;;;15.92;100.00;-18455.94;5018444;28;20012;-82
2023/05/10 10:25:10;;;;;;;;;;;;;;;15.61;100.00;-18447.72;5004756;28;19940;-82
2023/05/10 10:27:56;;;;;;;;;;;;;;;15.61;100.00;-18447.72;5005825;28;20449;-82
2023/05/10 10:30:24;;;;;;;;;;;;;;;15.79;100.00;-18452.66;5003189;28;20283;-82
2023/05/10 10:33:08;;;;;;;;;;;;;;;15.94;100.00;-18456.63;5005150;28;19921;-83
2023/05/10 10:35:34;;;;;;;;;;;;;;;16.30;100.00;-18466.06;5005800;28;19925;-82
2023/05/10 10:38:00;;;;;;;;;;;;;;;16.20;100.00;-18463.47;5005366;28;19921;-82
2023/05/10 10:40:29;;;;;;;;;;;;;;;16.35;100.00;-18467.41;5011124;28;19921;-81
2023/05/10 10:42:55;;;;;;;;;;;;;;;16.11;100.00;-18461.13;5006461;28;21632;-82
2023/05/10 10:45:21;;;;;;;;;;;;;;;16.02;100.00;-18458.81;5005350;28;20328;-82
2023/05/10 10:47:46;;;;;;;;;;;;;;;16.13;100.00;-18461.53;5004104;28;19932;-83
2023/05/10 10:50:16;;;;;;;;;;;;;;;16.16;100.00;-18462.38;5003487;28;20003;-83
2023/05/10 10:52:44;;;;;;;;;;;;;;;16.34;100.00;-18467.28;5003468;28;20365;-82
2023/05/10 10:55:10;;;;;;;;;;;;;;;16.33;100.00;-18467.00;5005722;28;20000;-82
2023/05/10 10:57:54;;;;;;;;;;;;;;;16.44;100.00;-18469.88;5005109;28;20055;-82
2023/05/10 11:00:33;;;;;;;;;;;;;;;16.57;100.00;-18473.28;5001191;28;19933;-82
2023/05/10 11:02:58;;;;;;;;;;;;;;;16.70;100.00;-18476.97;5006262;28;19917;-82
2023/05/10 11:05:32;;;;;;;;;;;;;;;17.12;100.00;-18488.06;5006601;28;19921;-82
2023/05/10 11:07:58;;;;;;;;;;;;;;;17.30;100.00;-18492.81;5006262;28;19952;-82
2023/05/10 11:10:24;;;;;;;;;;;;;;;17.41;100.00;-18495.69;5004166;28;20315;-82
2023/05/10 11:12:53;;;;;;;;;;;;;;;17.63;100.00;-18501.69;5008330;28;19913;-82
2023/05/10 11:15:19;;;;;;;;;;;;;;;17.26;100.00;-18491.72;5005919;28;19913;-82
2023/05/10 11:17:47;;;;;;;;;;;;;;;17.05;100.00;-18486.13;5005339;28;19953;-83
2023/05/10 11:20:14;;;;;;;;;;;;;;;16.92;100.00;-18482.72;5018988;28;19921;-82
2023/05/10 11:22:52;;;;;;;;;;;;;;;16.90;100.00;-18482.19;5001642;28;19928;-82
2023/05/10 11:25:17;;;;;;;;;;;;;;;16.74;100.00;-18477.81;5004772;28;19918;-83
2023/05/10 11:27:43;;;;;;;;;;;;;;;16.55;100.00;-18472.88;5005001;28;20200;-82
2023/05/10 11:30:10;;;;;;;;;;;;;;;16.40;100.00;-18468.94;5009014;28;19917;-82
2023/05/10 11:32:36;;;;;;;;;;;;;;;16.32;100.00;-18466.75;5003468;28;19929;-82
2023/05/10 11:35:06;;;;;;;;;;;;;;;16.32;100.00;-18466.59;5005763;28;19917;-82
2023/05/10 11:37:34;;;;;;;;;;;;;;;16.26;100.00;-18464.97;5003134;28;19964;-82
2023/05/10 11:39:59;;;;;;;;;;;;;;;16.02;100.00;-18458.81;5003918;28;19927;-83
2023/05/10 11:42:24;;;;;;;;;;;;;;;15.96;100.00;-18457.03;5004721;28;19921;-82
2023/05/10 11:44:49;;;;;;;;;;;;;;;15.75;100.00;-18451.44;5005567;28;19964;-82
2023/05/10 11:47:14;;;;;;;;;;;;;;;15.75;100.00;-18451.56;5005338;28;19963;-82
2023/05/10 11:49:43;;;;;;;;;;;;;;;15.62;100.00;-18447.88;5003708;28;19964;-81
2023/05/10 11:52:08;;;;;;;;;;;;;;;15.50;100.00;-18444.72;5020693;28;19918;-83
2023/05/10 11:54:36;;;;;;;;;;;;;;;15.48;100.00;-18444.19;5003919;28;20388;-83
2023/05/10 11:57:01;;;;;;;;;;;;;;;15.42;100.00;-18442.66;5004690;28;20467;-82
2023/05/10 11:59:27;;;;;;;;;;;;;;;15.58;100.00;-18447.03;5002244;28;19922;-82
2023/05/10 12:01:52;;;;;;;;;;;;;;;15.77;100.00;-18451.97;5004749;28;19926;-83
2023/05/10 12:04:18;;;;;;;;;;;;;;;15.47;100.00;-18443.91;5003277;28;19917;-83
2023/05/10 12:06:43;;;;;;;;;;;;;;;15.42;100.00;-18442.66;5003560;28;19921;-81
2023/05/10 12:09:09;;;;;;;;;;;;;;;15.48;100.00;-18444.31;5003632;28;19917;-83
2023/05/10 12:11:37;;;;;;;;;;;;;;;15.65;100.00;-18448.81;5001258;28;19921;-81
2023/05/10 12:14:04;;;;;;;;;;;;;;;15.45;100.00;-18443.50;5005848;28;19944;-83
2023/05/10 12:16:29;;;;;;;;;;;;;;;15.61;100.00;-18447.59;5002549;28;21327;-82
2023/05/10 12:18:58;;;;;;;;;;;;;;;15.69;100.00;-18449.78;5003584;28;20048;-82
2023/05/10 12:21:24;;;;;;;;;;;;;;;15.82;100.00;-18453.34;5000522;28;20434;-81
2023/05/10 12:23:53;;;;;;;;;;;;;;;16.11;100.00;-18461.13;5003779;28;19917;-81
2023/05/10 12:26:22;;;;;;;;;;;;;;;16.26;100.00;-18465.09;5002288;28;19917;-81